Time;durP1;ratioP1;P1;durP2;ratioP2;P2;SDS_P1;SDS_P2;PMS_P1;PMS_P2;Temp;Humidity;BMP_temperature;BMP_pressure;BME280_temperature;BME280_humidity;BME280_pressure;Samples;Min_cycle;Max_cycle;Signal;HPM_P1;HPM_P2
2021/06/19 00:02:01;;;;;;;33.35;29.90;;;19.20;99.90;;;;;;4978016;28;20075;-76
2021/06/19 00:04:32;;;;;;;38.92;31.50;;;19.20;99.90;;;;;;4983357;28;20047;-76
2021/06/19 00:06:59;;;;;;;33.58;30.05;;;19.30;99.90;;;;;;4967137;28;20097;-78
2021/06/19 00:09:26;;;;;;;32.25;28.98;;;19.30;99.90;;;;;;4982884;28;20051;-76
2021/06/19 00:11:53;;;;;;;29.83;26.70;;;19.30;99.90;;;;;;4982791;28;20065;-76
2021/06/19 00:14:20;;;;;;;35.65;32.10;;;19.40;99.90;;;;;;4967778;28;20255;-75
2021/06/19 00:16:48;;;;;;;34.55;28.83;;;19.30;99.90;;;;;;4986610;28;20579;-77
2021/06/19 00:19:16;;;;;;;34.25;30.98;;;19.20;99.90;;;;;;4968627;28;20046;-77
2021/06/19 00:21:42;;;;;;;33.92;30.55;;;19.20;99.90;;;;;;4973027;28;20054;-76
2021/06/19 00:24:35;;;;;;;38.63;31.38;;;19.30;99.90;;;;;;4982229;28;20284;-78
2021/06/19 00:27:02;;;;;;;41.40;32.42;;;19.30;99.90;;;;;;4985391;28;20146;-73
2021/06/19 00:29:30;;;;;;;55.65;40.70;;;18.80;99.90;;;;;;4970019;28;20335;-73
2021/06/19 00:31:57;;;;;;;68.70;52.30;;;18.60;99.90;;;;;;5002564;28;20591;-76
2021/06/19 00:34:25;;;;;;;53.70;44.22;;;18.50;99.90;;;;;;4984253;28;20520;-75
2021/06/19 00:36:52;;;;;;;60.83;45.58;;;18.50;99.90;;;;;;4949309;28;20046;-76
2021/06/19 00:39:19;;;;;;;59.60;46.83;;;18.60;99.90;;;;;;4976062;28;20110;-75
2021/06/19 00:41:46;;;;;;;52.70;42.20;;;18.70;99.90;;;;;;4950710;28;20120;-76
2021/06/19 00:44:19;;;;;;;48.60;38.00;;;18.70;99.90;;;;;;4967869;28;20109;-76
2021/06/19 00:46:51;;;;;;;50.58;40.75;;;18.70;99.90;;;;;;4968908;28;20050;-75
2021/06/19 00:49:18;;;;;;;64.20;49.03;;;18.70;99.90;;;;;;4985166;28;20457;-75
2021/06/19 00:51:45;;;;;;;67.60;50.20;;;18.70;99.90;;;;;;4969588;28;20046;-76
2021/06/19 00:54:13;;;;;;;65.60;48.03;;;18.80;99.90;;;;;;5002603;28;20069;-75
2021/06/19 00:56:40;;;;;;;63.63;47.83;;;19.00;99.90;;;;;;4982903;28;20125;-75
2021/06/19 00:59:08;;;;;;;68.15;48.97;;;18.80;99.90;;;;;;4983407;28;20137;-75
2021/06/19 01:01:37;;;;;;;57.90;46.08;;;18.80;99.90;;;;;;4985187;28;20054;-75
2021/06/19 01:04:05;;;;;;;64.03;49.72;;;18.80;99.90;;;;;;4969239;28;20044;-74
2021/06/19 01:06:34;;;;;;;74.50;51.08;;;18.80;99.90;;;;;;4968940;28;20153;-75
2021/06/19 01:09:04;;;;;;;76.30;52.25;;;19.00;99.90;;;;;;4985890;28;20058;-75
2021/06/19 01:11:32;;;;;;;75.80;52.72;;;19.00;99.90;;;;;;4969009;28;20058;-74
2021/06/19 01:13:59;;;;;;;79.75;53.78;;;19.10;99.90;;;;;;4985534;28;20108;-75
2021/06/19 01:16:27;;;;;;;75.85;51.28;;;19.10;99.90;;;;;;4967756;28;20444;-74
2021/06/19 01:18:54;;;;;;;82.00;55.15;;;19.00;99.90;;;;;;4974197;28;20058;-74
2021/06/19 01:21:24;;;;;;;78.28;52.58;;;19.00;99.90;;;;;;4979867;28;20113;-76
2021/06/19 01:23:52;;;;;;;88.13;55.17;;;19.00;99.90;;;;;;4981252;28;20065;-75
2021/06/19 01:26:22;;;;;;;70.10;47.67;;;18.80;99.90;;;;;;4964958;28;20126;-76
2021/06/19 01:28:51;;;;;;;76.45;53.58;;;18.80;99.90;;;;;;4965286;28;20070;-74
2021/06/19 01:31:19;;;;;;;81.10;55.38;;;18.90;99.90;;;;;;4973036;28;20055;-75
2021/06/19 01:33:47;;;;;;;82.63;53.28;;;19.00;99.90;;;;;;4966138;28;20047;-75
2021/06/19 01:36:16;;;;;;;74.15;53.53;;;19.00;99.90;;;;;;4980353;28;20050;-75
2021/06/19 01:38:49;;;;;;;81.45;50.72;;;19.00;99.90;;;;;;4985066;28;20058;-75
2021/06/19 01:41:17;;;;;;;72.47;51.15;;;19.00;99.90;;;;;;4983426;28;20346;-76
2021/06/19 01:43:45;;;;;;;82.10;55.03;;;19.00;99.90;;;;;;4984637;28;20046;-75
2021/06/19 01:46:14;;;;;;;94.53;57.22;;;19.00;99.90;;;;;;4965996;28;20038;-75
2021/06/19 01:48:41;;;;;;;86.85;55.08;;;19.00;99.90;;;;;;4966834;28;20129;-74
2021/06/19 01:51:10;;;;;;;69.80;51.58;;;19.10;99.90;;;;;;4984195;28;20034;-76
2021/06/19 01:53:46;;;;;;;83.93;53.90;;;19.20;99.90;;;;;;4999405;28;20046;-73
2021/06/19 01:56:14;;;;;;;63.58;45.63;;;19.30;99.90;;;;;;5001420;28;20061;-74
2021/06/19 01:58:41;;;;;;;58.42;44.28;;;19.20;99.90;;;;;;4968670;28;20077;-74
2021/06/19 02:01:12;;;;;;;55.45;40.58;;;19.10;99.90;;;;;;4983033;28;20047;-76
2021/06/19 02:03:39;;;;;;;80.65;51.20;;;19.10;99.90;;;;;;4983943;28;20116;-76
2021/06/19 02:06:06;;;;;;;62.08;44.72;;;19.10;99.90;;;;;;4999871;28;20038;-75
2021/06/19 02:08:33;;;;;;;69.05;47.65;;;19.00;99.90;;;;;;5000887;28;20050;-76
2021/06/19 02:11:02;;;;;;;62.13;45.10;;;19.00;99.90;;;;;;4985618;28;20043;-77
2021/06/19 02:13:29;;;;;;;54.85;42.55;;;19.10;99.90;;;;;;4986160;28;20050;-77
2021/06/19 02:15:56;;;;;;;69.43;46.63;;;19.00;99.90;;;;;;4965530;28;20054;-78
2021/06/19 02:18:24;;;;;;;59.95;42.65;;;19.10;99.90;;;;;;5001088;28;20576;-74
2021/06/19 02:20:52;;;;;;;73.88;47.05;;;18.90;99.90;;;;;;4999841;28;20050;-74
2021/06/19 02:23:21;;;;;;;69.22;47.88;;;18.90;99.90;;;;;;4984662;28;20673;-75
2021/06/19 02:25:51;;;;;;;84.13;51.75;;;18.90;99.90;;;;;;4999112;28;20042;-74
2021/06/19 02:28:24;;;;;;;81.97;50.25;;;18.90;99.90;;;;;;5001521;28;20493;-77
2021/06/19 02:30:55;;;;;;;51.55;37.80;;;18.90;99.90;;;;;;5001136;28;20054;-77
2021/06/19 02:33:22;;;;;;;45.72;35.13;;;18.90;99.90;;;;;;5001272;28;20134;-76
2021/06/19 02:35:50;;;;;;;43.28;35.58;;;18.80;99.90;;;;;;4984325;28;20046;-77
2021/06/19 02:38:18;;;;;;;59.90;41.35;;;18.80;99.90;;;;;;4980086;28;20115;-78
2021/06/19 02:40:47;;;;;;;50.67;38.30;;;18.80;99.90;;;;;;4963919;28;20050;-77
2021/06/19 02:43:15;;;;;;;56.80;40.95;;;18.90;99.90;;;;;;4948769;28;20408;-75
2021/06/19 02:45:42;;;;;;;75.10;48.20;;;18.70;99.90;;;;;;4992006;28;20996;-76
2021/06/19 02:48:09;;;;;;;66.85;44.00;;;18.60;99.90;;;;;;4983427;28;20042;-73
2021/06/19 02:50:38;;;;;;;54.83;42.42;;;18.70;99.90;;;;;;4947087;28;20545;-75
2021/06/19 02:53:06;;;;;;;70.57;46.10;;;18.60;99.90;;;;;;4962091;28;20085;-73
2021/06/19 02:55:35;;;;;;;77.13;47.53;;;18.70;99.90;;;;;;4970650;28;20062;-75
2021/06/19 02:58:04;;;;;;;54.90;41.20;;;18.60;99.90;;;;;;4983376;28;20042;-75
2021/06/19 03:00:31;;;;;;;52.25;37.00;;;18.60;99.90;;;;;;4964248;28;20066;-74
2021/06/19 03:02:59;;;;;;;48.90;38.60;;;18.60;99.90;;;;;;4982070;28;20127;-75
2021/06/19 03:05:27;;;;;;;58.72;41.85;;;18.60;99.90;;;;;;4981435;28;20050;-75
2021/06/19 03:07:55;;;;;;;56.97;44.95;;;18.70;99.90;;;;;;4998968;28;20054;-75
2021/06/19 03:10:24;;;;;;;48.60;37.28;;;18.80;99.90;;;;;;4984167;28;20047;-75
2021/06/19 03:12:51;;;;;;;37.35;30.15;;;18.70;99.90;;;;;;4965077;28;20090;-76
2021/06/19 03:15:18;;;;;;;44.88;33.88;;;18.70;99.90;;;;;;4958261;28;20042;-77
2021/06/19 03:17:45;;;;;;;47.70;36.13;;;18.60;99.90;;;;;;4968586;28;20582;-76
2021/06/19 03:20:14;;;;;;;50.03;37.55;;;18.60;99.90;;;;;;4982417;28;20320;-75
2021/06/19 03:22:47;;;;;;;50.35;38.67;;;18.70;99.90;;;;;;4965664;28;20543;-74
2021/06/19 03:25:17;;;;;;;59.00;39.67;;;18.70;99.90;;;;;;4982194;28;20058;-73
2021/06/19 03:27:44;;;;;;;55.70;39.58;;;18.60;99.90;;;;;;5001171;23;20101;-83
2021/06/19 03:30:12;;;;;;;46.50;36.38;;;18.60;99.90;;;;;;4976913;28;20039;-82
2021/06/19 03:32:39;;;;;;;51.65;34.65;;;18.60;99.90;;;;;;4967864;28;20508;-83
2021/06/19 03:35:09;;;;;;;63.67;44.60;;;18.50;99.90;;;;;;4952179;28;20050;-83
2021/06/19 03:37:36;;;;;;;59.20;44.92;;;18.50;99.90;;;;;;4969013;28;20495;-83
2021/06/19 03:40:06;;;;;;;59.72;42.03;;;18.50;99.90;;;;;;4985437;28;20054;-83
2021/06/19 03:42:34;;;;;;;51.65;37.17;;;18.50;99.90;;;;;;4967628;28;20054;-83
2021/06/19 03:45:00;;;;;;;58.75;41.63;;;18.50;99.90;;;;;;4951782;28;20031;-83
2021/06/19 03:47:27;;;;;;;51.85;38.40;;;18.40;99.90;;;;;;4972074;28;20359;-82
2021/06/19 03:49:54;;;;;;;45.10;35.33;;;18.30;99.90;;;;;;5005049;28;20129;-82
2021/06/19 03:52:21;;;;;;;59.67;39.78;;;18.30;99.90;;;;;;4992941;28;20026;-83
2021/06/19 03:54:48;;;;;;;48.08;36.72;;;18.40;99.90;;;;;;5010650;28;20030;-82
2021/06/19 03:57:26;;;;;;;47.92;35.58;;;18.40;99.90;;;;;;4993677;28;20070;-82
2021/06/19 03:59:54;;;;;;;56.65;40.30;;;18.50;99.90;;;;;;4977938;28;20046;-83
2021/06/19 04:02:21;;;;;;;51.83;36.85;;;18.60;99.90;;;;;;4983942;28;20101;-83
2021/06/19 04:04:49;;;;;;;48.40;34.05;;;18.60;99.90;;;;;;4971012;28;20096;-84
2021/06/19 04:07:18;;;;;;;50.90;35.33;;;18.60;99.90;;;;;;4987943;28;20053;-84
2021/06/19 04:09:47;;;;;;;45.63;31.45;;;18.60;99.90;;;;;;4971492;28;20078;-84
2021/06/19 04:12:18;;;;;;;45.17;32.47;;;18.50;99.90;;;;;;4955186;28;20050;-84
2021/06/19 04:14:51;;;;;;;52.67;36.15;;;18.50;99.90;;;;;;4971655;28;20314;-84
2021/06/19 04:17:19;;;;;;;59.78;38.05;;;18.60;99.90;;;;;;4986777;28;20436;-84
2021/06/19 04:19:47;;;;;;;53.67;38.58;;;18.70;99.90;;;;;;4971937;28;20291;-85
2021/06/19 04:22:14;;;;;;;59.28;40.80;;;18.70;99.90;;;;;;4970692;28;20916;-84
2021/06/19 04:24:42;;;;;;;51.50;34.67;;;18.70;99.90;;;;;;4987527;28;20517;-85
2021/06/19 04:27:16;;;;;;;55.22;35.47;;;18.80;99.90;;;;;;4970651;28;20073;-85
2021/06/19 04:29:43;;;;;;;41.90;28.52;;;18.80;99.90;;;;;;4971935;28;20050;-85
2021/06/19 04:32:12;;;;;;;35.75;26.98;;;18.90;99.90;;;;;;4986850;28;20421;-85
2021/06/19 04:34:40;;;;;;;38.53;28.85;;;19.00;99.90;;;;;;4951614;28;20051;-84
2021/06/19 04:37:11;;;;;;;35.67;28.58;;;19.10;99.90;;;;;;4966967;28;20057;-85
2021/06/19 04:39:40;;;;;;;31.08;26.85;;;19.40;99.90;;;;;;4966497;28;20575;-85
2021/06/19 04:42:09;;;;;;;34.03;23.70;;;19.60;99.90;;;;;;4970383;28;20460;-85
2021/06/19 04:47:25;;;;;;;29.80;22.67;;;19.90;99.90;;;;;;4970761;28;20050;-85
2021/06/19 04:49:53;;;;;;;26.85;19.40;;;20.10;99.90;;;;;;4971471;28;20500;-84
2021/06/19 04:52:21;;;;;;;24.40;19.75;;;20.30;99.90;;;;;;4969835;28;20269;-84
2021/06/19 04:54:48;;;;;;;29.17;20.63;;;20.60;99.90;;;;;;4970461;28;20054;-85
2021/06/19 04:57:15;;;;;;;25.33;19.10;;;20.90;99.90;;;;;;4969666;28;20054;-85
2021/06/19 04:59:42;;;;;;;26.05;19.90;;;21.10;99.90;;;;;;4971028;28;20524;-85
2021/06/19 05:02:09;;;;;;;24.23;17.13;;;21.20;99.90;;;;;;4970404;28;20046;-84
2021/06/19 05:04:36;;;;;;;24.38;15.73;;;21.50;99.90;;;;;;4971316;28;20042;-84
2021/06/19 05:07:03;;;;;;;20.55;14.05;;;21.50;99.90;;;;;;4987233;28;20049;-85
2021/06/19 05:09:30;;;;;;;19.80;13.88;;;21.70;99.90;;;;;;4991424;28;20049;-85
2021/06/19 05:11:56;;;;;;;18.35;15.23;;;21.90;99.90;;;;;;4973879;28;20053;-84
2021/06/19 05:14:23;;;;;;;18.45;14.38;;;21.90;99.90;;;;;;4972534;28;20419;-84
2021/06/19 05:16:50;;;;;;;22.75;14.68;;;22.10;99.90;;;;;;4955883;28;20039;-84
2021/06/19 05:19:19;;;;;;;21.58;15.20;;;22.10;99.90;;;;;;4938009;28;20054;-84
2021/06/19 05:21:46;;;;;;;20.00;14.35;;;22.10;99.90;;;;;;4951413;28;20070;-84
2021/06/19 05:24:13;;;;;;;17.90;13.63;;;22.20;99.90;;;;;;4934793;28;20101;-85
2021/06/19 05:26:40;;;;;;;14.57;12.98;;;22.40;99.90;;;;;;4918277;28;20055;-85
2021/06/19 05:29:07;;;;;;;16.90;15.07;;;22.40;99.90;;;;;;4950984;28;20074;-83
2021/06/19 05:31:34;;;;;;;14.98;13.45;;;22.50;99.90;;;;;;4937370;28;20050;-84
2021/06/19 05:34:01;;;;;;;15.35;13.18;;;22.60;99.90;;;;;;4935094;28;20301;-84
2021/06/19 05:36:28;;;;;;;15.18;13.98;;;22.70;99.90;;;;;;4950387;28;20135;-84
2021/06/19 05:38:55;;;;;;;19.48;13.57;;;22.90;99.90;;;;;;4940466;28;20235;-83
2021/06/19 05:41:22;;;;;;;16.85;12.35;;;23.10;99.90;;;;;;4947655;28;20094;-84
2021/06/19 05:43:49;;;;;;;12.52;11.35;;;23.20;99.90;;;;;;4950448;28;20264;-85
2021/06/19 05:46:16;;;;;;;13.65;10.57;;;23.40;99.90;;;;;;4944116;28;20047;-84
2021/06/19 05:48:43;;;;;;;13.35;9.05;;;23.60;99.90;;;;;;4937288;28;20077;-84
2021/06/19 05:51:10;;;;;;;10.23;8.88;;;23.60;99.90;;;;;;4939727;28;20043;-85
2021/06/19 05:53:37;;;;;;;12.60;9.25;;;23.80;99.90;;;;;;4935501;28;20085;-86
2021/06/19 05:56:04;;;;;;;10.55;9.60;;;24.00;99.90;;;;;;4926198;28;20050;-84
2021/06/19 05:58:31;;;;;;;10.68;9.18;;;24.00;99.90;;;;;;4970238;28;20058;-84
2021/06/19 06:00:58;;;;;;;11.43;10.25;;;23.90;99.90;;;;;;4956571;28;20319;-84
2021/06/19 06:03:24;;;;;;;11.02;9.18;;;23.90;99.90;;;;;;4968822;28;20054;-85
2021/06/19 06:05:51;;;;;;;10.80;9.05;;;23.70;99.90;;;;;;4968959;28;20051;-84
2021/06/19 06:08:18;;;;;;;8.90;8.02;;;23.70;99.90;;;;;;4986182;28;20058;-83
2021/06/19 06:10:45;;;;;;;11.15;8.60;;;23.70;99.90;;;;;;4968886;28;20076;-84
2021/06/19 06:13:12;;;;;;;9.68;8.68;;;23.80;99.90;;;;;;4985456;28;20042;-83
2021/06/19 06:15:39;;;;;;;10.15;9.10;;;23.80;99.90;;;;;;4983803;28;20054;-84
2021/06/19 06:18:05;;;;;;;8.55;7.85;;;24.00;99.90;;;;;;4952476;28;20053;-84
2021/06/19 06:20:32;;;;;;;8.95;8.35;;;24.20;99.90;;;;;;4952519;28;20061;-83
2021/06/19 06:22:59;;;;;;;9.63;8.73;;;24.30;99.90;;;;;;4983832;28;20061;-84
2021/06/19 06:25:26;;;;;;;9.27;8.57;;;24.50;99.90;;;;;;4968448;28;20105;-85
2021/06/19 06:27:53;;;;;;;9.23;8.63;;;24.40;99.90;;;;;;4969442;28;20543;-83
2021/06/19 06:30:20;;;;;;;9.55;8.40;;;24.40;99.90;;;;;;4968752;28;20046;-84
2021/06/19 06:32:47;;;;;;;8.90;8.18;;;24.50;99.90;;;;;;4969200;28;20133;-83
2021/06/19 06:35:14;;;;;;;10.00;9.10;;;24.70;99.90;;;;;;5000211;28;20054;-82
2021/06/19 06:37:42;;;;;;;9.32;8.63;;;24.90;99.90;;;;;;4998987;28;20069;-80
2021/06/19 06:40:12;;;;;;;9.30;8.40;;;25.00;99.90;;;;;;4979933;28;20042;-81
2021/06/19 06:42:41;;;;;;;10.18;9.02;;;25.20;99.90;;;;;;4969401;28;20543;-83
2021/06/19 06:45:14;;;;;;;10.20;9.30;;;25.40;99.90;;;;;;4969277;28;20081;-81
2021/06/19 06:47:47;;;;;;;9.63;8.82;;;25.70;99.90;;;;;;4985892;28;20038;-83
2021/06/19 06:50:14;;;;;;;10.10;9.30;;;25.80;99.90;;;;;;4952943;28;20040;-81
2021/06/19 06:52:42;;;;;;;9.70;9.00;;;25.70;99.90;;;;;;4985388;28;20098;-81
2021/06/19 06:55:09;;;;;;;11.90;8.80;;;25.90;99.90;;;;;;4968383;28;20105;-80
2021/06/19 06:57:37;;;;;;;11.68;9.48;;;26.00;99.90;;;;;;4969526;28;20343;-81
2021/06/19 07:00:06;;;;;;;9.13;8.25;;;26.30;99.90;;;;;;4985569;28;20046;-80
2021/06/19 07:02:33;;;;;;;9.93;8.93;;;26.30;99.90;;;;;;4985568;28;20061;-80
2021/06/19 07:05:03;;;;;;;9.90;9.02;;;26.40;99.90;;;;;;4952659;28;20480;-81
2021/06/19 07:07:30;;;;;;;10.20;9.30;;;26.20;99.90;;;;;;4968256;28;20043;-80
2021/06/19 07:09:57;;;;;;;10.43;9.52;;;26.30;99.90;;;;;;4985933;28;20186;-81
2021/06/19 07:12:23;;;;;;;11.55;9.80;;;26.40;99.90;;;;;;4985320;28;20042;-84
2021/06/19 07:14:50;;;;;;;11.25;10.43;;;26.40;99.90;;;;;;4984563;28;20489;-81
2021/06/19 07:17:17;;;;;;;11.07;10.13;;;26.50;99.90;;;;;;4959940;28;20339;-80
2021/06/19 07:19:44;;;;;;;12.10;11.10;;;26.40;99.90;;;;;;4933723;28;20054;-82
2021/06/19 07:22:10;;;;;;;11.75;10.80;;;26.50;99.90;;;;;;4948945;28;20682;-81
2021/06/19 07:24:37;;;;;;;11.77;10.68;;;26.50;99.90;;;;;;4949817;28;20093;-80
2021/06/19 07:27:05;;;;;;;12.13;10.93;;;26.60;99.90;;;;;;4934705;28;20086;-80
2021/06/19 07:29:32;;;;;;;12.10;11.05;;;26.80;99.90;;;;;;4964291;28;20050;-81
2021/06/19 07:31:59;;;;;;;13.13;11.43;;;26.90;99.90;;;;;;4940933;28;20216;-82
2021/06/19 07:34:27;;;;;;;12.35;11.45;;;26.80;99.90;;;;;;4949455;28;20319;-80
2021/06/19 07:36:54;;;;;;;11.82;11.02;;;26.70;99.90;;;;;;4944008;28;20316;-80
2021/06/19 07:39:21;;;;;;;12.10;11.05;;;26.50;99.90;;;;;;4957541;28;20057;-80
2021/06/19 07:41:48;;;;;;;12.73;11.50;;;26.50;99.90;;;;;;4951864;28;20670;-81
2021/06/19 07:44:15;;;;;;;12.95;12.15;;;26.70;99.90;;;;;;4952996;28;20084;-83
2021/06/19 07:46:42;;;;;;;12.52;11.68;;;26.70;99.90;;;;;;4968698;28;20042;-83
2021/06/19 07:49:09;;;;;;;12.85;11.68;;;26.80;99.90;;;;;;4967902;28;20047;-81
2021/06/19 07:51:36;;;;;;;11.90;11.00;;;26.90;99.90;;;;;;4968845;28;20047;-81
2021/06/19 07:54:03;;;;;;;12.73;11.80;;;26.90;99.90;;;;;;4969411;28;20105;-81
2021/06/19 07:56:30;;;;;;;13.20;12.20;;;27.10;99.90;;;;;;4971139;28;20050;-79
2021/06/19 07:58:57;;;;;;;12.07;11.27;;;27.50;99.90;;;;;;4975590;28;20045;-81
2021/06/19 08:01:24;;;;;;;13.75;12.60;;;27.80;99.90;;;;;;4958575;28;20054;-80
2021/06/19 08:03:51;;;;;;;14.52;12.82;;;27.90;99.90;;;;;;4975527;28;20104;-81
2021/06/19 08:06:17;;;;;;;13.25;12.32;;;27.90;99.90;;;;;;4995801;28;20030;-79
2021/06/19 08:08:44;;;;;;;13.38;12.30;;;28.00;99.90;;;;;;5033024;28;20041;-80
2021/06/19 08:11:11;;;;;;;13.55;12.55;;;28.30;99.90;;;;;;5000937;28;20056;-80
2021/06/19 08:13:38;;;;;;;12.15;11.20;;;28.30;99.90;;;;;;5032964;28;20033;-80
2021/06/19 08:16:05;;;;;;;11.93;11.30;;;28.40;99.90;;;;;;4969337;28;20347;-83
2021/06/19 08:18:33;;;;;;;13.07;12.18;;;28.30;99.90;;;;;;4967824;28;20046;-81
2021/06/19 08:21:01;;;;;;;13.35;12.15;;;28.50;99.90;;;;;;4952778;28;20590;-83
2021/06/19 08:23:28;;;;;;;12.77;12.07;;;28.40;99.90;;;;;;4933584;28;20081;-81
2021/06/19 08:25:54;;;;;;;12.43;11.40;;;28.40;99.90;;;;;;4951786;28;20309;-81
2021/06/19 08:28:21;;;;;;;17.00;12.82;;;28.00;99.90;;;;;;4953251;28;20341;-81
2021/06/19 08:30:48;;;;;;;13.65;12.45;;;28.00;99.90;;;;;;4934720;28;20043;-80
2021/06/19 08:33:15;;;;;;;12.57;11.82;;;28.00;99.90;;;;;;4951555;28;20047;-83
2021/06/19 08:35:42;;;;;;;12.55;11.80;;;27.90;99.90;;;;;;4935273;28;20053;-81
2021/06/19 08:38:08;;;;;;;13.43;12.23;;;28.10;99.90;;;;;;4935496;28;20058;-81
2021/06/19 08:40:37;;;;;;;13.65;12.65;;;28.30;99.90;;;;;;4967100;28;20073;-83
2021/06/19 08:43:05;;;;;;;13.05;12.07;;;28.40;99.90;;;;;;4967747;28;20062;-80
2021/06/19 08:45:33;;;;;;;13.57;12.65;;;28.20;99.90;;;;;;4931088;28;20505;-81
2021/06/19 08:48:02;;;;;;;13.90;12.90;;;28.40;99.90;;;;;;4944807;29;20047;-81
2021/06/19 08:50:30;;;;;;;13.40;12.38;;;28.40;99.90;;;;;;4947957;28;20130;-81
2021/06/19 08:53:00;;;;;;;13.57;12.40;;;28.70;99.90;;;;;;4935057;28;20528;-81
2021/06/19 08:55:28;;;;;;;14.00;12.75;;;28.90;99.90;;;;;;4951129;28;20046;-84
2021/06/19 08:57:55;;;;;;;15.02;13.63;;;28.70;99.90;;;;;;4935670;28;20561;-81
2021/06/19 09:00:22;;;;;;;13.73;12.65;;;28.60;99.90;;;;;;4935263;28;20587;-81
2021/06/19 09:02:51;;;;;;;14.43;13.43;;;28.80;99.90;;;;;;4935931;28;20307;-81
2021/06/19 09:05:26;;;;;;;14.23;13.10;;;29.00;99.90;;;;;;4949982;28;20051;-81
2021/06/19 09:07:54;;;;;;;13.93;12.75;;;29.10;99.90;;;;;;4920638;28;20573;-81
2021/06/19 09:10:27;;;;;;;13.80;12.80;;;29.20;99.90;;;;;;4935756;28;20050;-82
2021/06/19 09:12:58;;;;;;;13.55;12.45;;;29.30;99.90;;;;;;4951623;28;20146;-84
2021/06/19 09:15:26;;;;;;;15.07;13.93;;;29.20;99.90;;;;;;4942058;28;20050;-81
2021/06/19 09:18:23;;;;;;;14.38;13.15;;;29.10;99.90;;;;;;4934618;28;20038;-82
2021/06/19 09:20:58;;;;;;;14.43;13.32;;;29.20;99.90;;;;;;4933936;28;20142;-84
2021/06/19 09:23:36;;;;;;;18.40;13.32;;;29.40;99.90;;;;;;4951898;28;20082;-84
2021/06/19 09:26:16;;;;;;;14.32;13.07;;;29.80;99.90;;;;;;4959991;28;20465;-83
2021/06/19 09:29:05;;;;;;;14.43;13.23;;;30.00;99.90;;;;;;4980229;28;20113;-84
2021/06/19 09:31:53;;;;;;;15.15;13.68;;;30.30;99.90;;;;;;4969594;28;20231;-82
2021/06/19 09:34:22;;;;;;;14.55;13.43;;;30.00;99.90;;;;;;4939198;28;20524;-85
2021/06/19 09:36:53;;;;;;;14.00;12.80;;;29.90;99.90;;;;;;4951828;28;20406;-85
2021/06/19 09:39:28;;;;;;;13.43;12.20;;;29.70;99.90;;;;;;4935505;28;20050;-84
2021/06/19 09:41:56;;;;;;;13.93;13.02;;;29.80;99.90;;;;;;4951333;28;20054;-84
2021/06/19 09:44:43;;;;;;;13.95;12.70;;;29.90;99.90;;;;;;4951012;28;20054;-85
2021/06/19 09:47:12;;;;;;;13.23;12.23;;;30.10;99.90;;;;;;4977573;28;20042;-84
2021/06/19 09:49:41;;;;;;;12.52;11.73;;;30.10;99.90;;;;;;4978600;28;20073;-85
2021/06/19 09:52:12;;;;;;;13.25;12.35;;;30.30;99.90;;;;;;4969084;28;20497;-85
2021/06/19 09:54:40;;;;;;;13.27;12.05;;;30.20;99.90;;;;;;4970940;28;20042;-84
2021/06/19 09:57:09;;;;;;;13.13;12.20;;;30.40;99.90;;;;;;4969793;28;20053;-85
2021/06/19 09:59:38;;;;;;;15.00;13.98;;;30.60;99.90;;;;;;4975024;28;20480;-85
2021/06/19 10:02:23;;;;;;;13.80;12.95;;;30.40;99.90;;;;;;4990028;28;20253;-85
2021/06/19 10:04:51;;;;;;;14.70;13.77;;;30.40;99.90;;;;;;4974459;28;20057;-85
2021/06/19 10:07:19;;;;;;;16.05;14.57;;;30.20;99.90;;;;;;4978549;28;20393;-84
2021/06/19 10:09:52;;;;;;;14.55;13.35;;;30.00;99.90;;;;;;4969917;28;20050;-81
2021/06/19 10:12:23;;;;;;;14.50;13.60;;;29.70;99.90;;;;;;4983819;28;20042;-85
2021/06/19 10:14:57;;;;;;;14.93;13.60;;;29.90;99.90;;;;;;4969086;28;20558;-85
2021/06/19 10:17:32;;;;;;;14.13;12.93;;;30.20;99.90;;;;;;4954803;28;20050;-84
2021/06/19 10:20:01;;;;;;;13.63;12.73;;;30.40;99.90;;;;;;4980804;28;20297;-84
2021/06/19 10:22:33;;;;;;;13.93;12.93;;;30.50;99.90;;;;;;4968893;28;20048;-84
2021/06/19 10:25:09;;;;;;;13.98;13.10;;;30.80;99.90;;;;;;4952303;28;20057;-81
2021/06/19 10:27:44;;;;;;;13.98;12.88;;;31.00;99.90;;;;;;4970391;28;20054;-85
2021/06/19 10:30:11;;;;;;;14.27;13.25;;;30.70;99.90;;;;;;4954117;28;20094;-85
2021/06/19 10:32:46;;;;;;;13.70;12.57;;;30.70;99.90;;;;;;4971193;28;20544;-83
2021/06/19 10:35:16;;;;;;;12.27;11.57;;;30.90;99.90;;;;;;4968090;28;20501;-84
2021/06/19 10:37:45;;;;;;;13.27;12.38;;;31.00;99.90;;;;;;4953216;28;20067;-84
2021/06/19 10:40:16;;;;;;;12.23;11.38;;;31.20;99.90;;;;;;4934827;28;20055;-84
2021/06/19 10:42:44;;;;;;;12.63;11.75;;;31.00;99.90;;;;;;4965566;28;20547;-83
2021/06/19 10:45:24;;;;;;;12.93;12.13;;;30.80;99.90;;;;;;4959416;28;20593;-82
2021/06/19 10:48:00;;;;;;;12.07;11.25;;;30.80;99.90;;;;;;4967955;28;20080;-83
2021/06/19 10:50:27;;;;;;;12.13;11.15;;;30.70;99.90;;;;;;4966302;28;20039;-84
2021/06/19 10:53:23;;;;;;;12.32;11.63;;;30.70;99.90;;;;;;4951567;28;20043;-85
2021/06/19 10:55:50;;;;;;;;;;;30.70;99.90;;;;;;4976935;28;20122;-83
2021/06/19 10:58:17;;;;;;;12.82;11.85;;;30.40;99.90;;;;;;4987092;28;20395;-83
2021/06/19 11:00:55;;;;;;;12.65;11.90;;;30.40;99.90;;;;;;4969620;28;20053;-83
2021/06/19 11:03:43;;;;;;;12.55;11.60;;;30.50;99.90;;;;;;4969991;28;20056;-85
2021/06/19 11:06:36;;;;;;;12.82;12.07;;;30.60;99.90;;;;;;4970095;28;20038;-85
2021/06/19 11:09:06;;;;;;;11.73;11.13;;;30.50;99.90;;;;;;4970151;28;20050;-84
2021/06/19 11:11:58;;;;;;;12.40;11.60;;;30.60;99.90;;;;;;4952816;28;20042;-82
2021/06/19 11:14:47;;;;;;;13.52;12.63;;;30.70;99.90;;;;;;4969643;28;20053;-82
2021/06/19 11:17:26;;;;;;;12.88;12.07;;;30.90;99.90;;;;;;4968347;28;20497;-83
2021/06/19 11:19:55;;;;;;;12.75;12.15;;;30.80;99.90;;;;;;4949165;28;20505;-82
2021/06/19 11:22:33;;;;;;;12.77;12.07;;;30.60;99.90;;;;;;4982896;28;20508;-82
2021/06/19 11:25:14;;;;;;;12.20;11.50;;;30.60;99.90;;;;;;4969330;28;20363;-84
2021/06/19 11:27:59;;;;;;;12.35;11.65;;;30.80;99.90;;;;;;4969641;28;20050;-83
2021/06/19 11:30:37;;;;;;;12.23;11.32;;;31.10;99.90;;;;;;4970199;28;20054;-84
2021/06/19 11:33:21;;;;;;;12.05;11.35;;;31.30;99.90;;;;;;4954136;28;20053;-84
2021/06/19 11:35:51;;;;;;;13.00;12.20;;;31.30;99.90;;;;;;4969518;28;20054;-83
2021/06/19 11:38:19;;;;;;;11.85;11.05;;;31.40;99.90;;;;;;4984707;28;20112;-84
2021/06/19 11:40:48;;;;;;;12.45;11.20;;;31.20;99.90;;;;;;4967705;28;20100;-83
2021/06/19 11:43:27;;;;;;;11.48;10.88;;;31.40;99.90;;;;;;4954185;28;20062;-82
2021/06/19 11:45:59;;;;;;;11.48;10.77;;;31.60;99.90;;;;;;4973945;28;20049;-82
2021/06/19 11:48:27;;;;;;;10.50;9.60;;;31.70;99.90;;;;;;4970405;28;20101;-83
2021/06/19 11:51:04;;;;;;;10.20;9.70;;;31.80;99.90;;;;;;4969661;28;20042;-82
2021/06/19 11:53:36;;;;;;;11.18;10.55;;;31.70;99.90;;;;;;4984315;28;20050;-82
2021/06/19 11:56:06;;;;;;;10.88;10.35;;;31.40;99.90;;;;;;5004810;28;20050;-82
2021/06/19 11:58:48;;;;;;;11.43;10.63;;;31.40;99.90;;;;;;5006004;28;20046;-83
2021/06/19 12:01:18;;;;;;;11.05;10.38;;;31.50;99.90;;;;;;4986993;28;20110;-83
2021/06/19 12:03:46;;;;;;;11.75;11.00;;;31.50;99.90;;;;;;4990167;28;20100;-82
2021/06/19 12:06:14;;;;;;;10.73;10.23;;;31.60;99.90;;;;;;5001508;28;20054;-83
2021/06/19 12:08:42;;;;;;;11.45;10.48;;;31.80;99.90;;;;;;4970083;28;20051;-82
2021/06/19 12:11:09;;;;;;;10.88;10.23;;;31.60;98.90;;;;;;4987159;28;20042;-82
2021/06/19 12:13:39;;;;;;;11.15;10.57;;;31.60;99.60;;;;;;4971433;28;20050;-83
2021/06/19 12:16:09;;;;;;;11.25;10.20;;;31.90;99.90;;;;;;4961398;28;20045;-83
2021/06/19 12:18:36;;;;;;;10.30;9.70;;;32.00;97.70;;;;;;4957740;28;20058;-82
2021/06/19 12:21:06;;;;;;;10.52;10.02;;;31.60;98.00;;;;;;4983698;28;20046;-82
2021/06/19 12:23:38;;;;;;;11.57;10.80;;;31.40;98.20;;;;;;4992876;28;20228;-83
2021/06/19 12:26:08;;;;;;;10.40;9.85;;;31.50;98.10;;;;;;5005428;28;20048;-83
2021/06/19 12:28:37;;;;;;;11.27;10.63;;;31.60;98.90;;;;;;4970985;28;20121;-83
2021/06/19 12:31:05;;;;;;;11.10;10.50;;;31.50;97.70;;;;;;4970555;28;20065;-84
2021/06/19 12:33:33;;;;;;;11.27;10.68;;;31.30;98.40;;;;;;4989281;28;20053;-83
2021/06/19 12:36:03;;;;;;;12.07;11.48;;;31.40;99.30;;;;;;4970290;28;20047;-83
2021/06/19 12:38:31;;;;;;;12.75;11.95;;;31.40;98.60;;;;;;4954597;28;20046;-82
2021/06/19 12:40:59;;;;;;;12.95;12.10;;;31.20;97.10;;;;;;4953009;28;20050;-83
2021/06/19 12:43:26;;;;;;;12.10;11.50;;;31.20;98.40;;;;;;4969493;28;20440;-82